createdAt,value
2023-05-17T00:00:46.456Z,12.45
2023-05-17T00:03:14.821Z,12.83
2023-05-17T00:05:46.453Z,12.73
2023-05-17T00:08:15.399Z,11.65
2023-05-17T00:10:45.558Z,12.43
2023-05-17T00:13:19.677Z,11.80
2023-05-17T00:18:41.022Z,12.82
2023-05-17T00:24:00.149Z,13.90
2023-05-17T00:26:44.794Z,11.90
2023-05-17T00:29:14.682Z,13.00
2023-05-17T00:31:42.322Z,11.43
2023-05-17T00:34:16.057Z,12.15
2023-05-17T00:36:52.337Z,12.27
2023-05-17T00:39:27.514Z,10.77
2023-05-17T00:41:55.786Z,10.82
2023-05-17T00:44:28.495Z,12.10
2023-05-17T00:46:59.261Z,10.90
2023-05-17T00:49:37.945Z,11.15
2023-05-17T00:52:10.466Z,11.10
2023-05-17T00:54:43.090Z,10.90
2023-05-17T00:57:10.485Z,11.55
2023-05-17T00:59:39.435Z,12.50
2023-05-17T01:02:06.950Z,11.43
2023-05-17T01:04:34.551Z,11.82
2023-05-17T01:09:47.554Z,11.32
2023-05-17T01:12:59.375Z,12.30
2023-05-17T01:15:52.279Z,11.82
2023-05-17T01:18:34.990Z,11.70
2023-05-17T01:21:35.330Z,12.98
2023-05-17T01:24:36.462Z,12.45
2023-05-17T01:27:09.495Z,12.88
2023-05-17T01:29:41.775Z,13.57
2023-05-17T01:32:14.760Z,13.50
2023-05-17T01:34:47.033Z,13.15
2023-05-17T01:37:21.966Z,15.05
2023-05-17T01:39:51.671Z,13.90
2023-05-17T01:42:33.259Z,14.55
2023-05-17T01:45:08.006Z,13.55
2023-05-17T01:50:20.508Z,14.82
2023-05-17T01:52:56.575Z,14.00
2023-05-17T01:55:37.239Z,13.90
2023-05-17T01:58:19.708Z,16.02
2023-05-17T02:00:49.916Z,14.07
2023-05-17T02:03:22.095Z,14.10
2023-05-17T02:05:50.372Z,14.77
2023-05-17T02:08:20.557Z,14.20
2023-05-17T02:10:47.631Z,14.13
2023-05-17T02:13:18.725Z,16.05
2023-05-17T02:15:48.220Z,15.95
2023-05-17T02:18:17.717Z,16.58
2023-05-17T02:20:50.830Z,15.45
2023-05-17T02:23:21.369Z,16.67
2023-05-17T02:25:51.790Z,16.38
2023-05-17T02:28:28.217Z,15.18
2023-05-17T02:30:56.629Z,15.20
2023-05-17T02:33:25.267Z,15.88
2023-05-17T02:35:54.150Z,16.70
2023-05-17T02:38:22.224Z,15.25
2023-05-17T02:40:50.596Z,17.17
2023-05-17T02:43:17.401Z,15.85
2023-05-17T02:45:46.441Z,16.80
2023-05-17T02:48:14.711Z,17.67
2023-05-17T02:50:45.739Z,17.80
2023-05-17T02:53:25.327Z,18.65
2023-05-17T02:56:16.470Z,18.70
2023-05-17T02:58:44.866Z,19.08
2023-05-17T03:01:13.212Z,17.90
2023-05-17T03:03:44.303Z,20.15
2023-05-17T03:06:16.024Z,18.85
2023-05-17T03:08:49.995Z,18.27
2023-05-17T03:11:18.495Z,18.23
2023-05-17T03:13:54.379Z,17.63
2023-05-17T03:16:23.950Z,17.70
2023-05-17T03:18:56.831Z,19.90
2023-05-17T03:21:29.246Z,19.70
2023-05-17T03:23:57.198Z,18.60
2023-05-17T03:26:49.959Z,18.08
2023-05-17T03:29:24.499Z,17.88
2023-05-17T03:31:54.800Z,18.50
2023-05-17T03:34:21.713Z,18.25
2023-05-17T03:36:49.991Z,19.20
2023-05-17T03:39:18.356Z,17.95
2023-05-17T03:41:47.389Z,19.58
2023-05-17T03:44:14.282Z,18.52
2023-05-17T03:46:44.710Z,18.73
2023-05-17T03:49:15.854Z,17.92
2023-05-17T03:51:46.607Z,17.60
2023-05-17T03:54:16.154Z,18.30
2023-05-17T03:56:47.603Z,18.48
2023-05-17T03:59:16.689Z,19.10
2023-05-17T04:01:45.839Z,18.75
2023-05-17T04:04:23.155Z,18.75
2023-05-17T04:06:49.821Z,18.33
2023-05-17T04:09:16.908Z,20.50
2023-05-17T04:11:44.416Z,21.08
2023-05-17T04:14:18.277Z,19.88
2023-05-17T04:16:45.339Z,23.30
2023-05-17T04:19:14.234Z,20.92
2023-05-17T04:21:47.081Z,23.23
2023-05-17T04:24:15.878Z,24.13
2023-05-17T04:26:46.094Z,22.75
2023-05-17T04:29:16.129Z,22.35
2023-05-17T04:31:48.998Z,24.92
2023-05-17T04:34:15.957Z,22.75
2023-05-17T04:36:44.363Z,22.08
2023-05-17T04:39:15.676Z,21.70
2023-05-17T04:41:44.841Z,21.25
2023-05-17T04:44:12.762Z,20.83
2023-05-17T04:46:41.829Z,20.17
2023-05-17T04:49:10.347Z,19.13
2023-05-17T04:51:43.607Z,17.08
2023-05-17T04:54:12.182Z,15.48
2023-05-17T04:56:38.988Z,14.55
2023-05-17T04:59:10.794Z,13.90
2023-05-17T05:01:37.511Z,11.73
2023-05-17T05:04:07.523Z,9.18
2023-05-17T05:06:35.280Z,6.65
2023-05-17T05:09:02.737Z,6.95
2023-05-17T05:11:32.286Z,6.13
2023-05-17T05:14:03.436Z,6.70
2023-05-17T05:16:31.629Z,3.97
2023-05-17T05:18:58.773Z,4.15
2023-05-17T05:21:25.955Z,4.85
2023-05-17T05:23:54.389Z,5.30
2023-05-17T05:26:22.832Z,5.80
2023-05-17T05:28:49.910Z,4.05
2023-05-17T05:31:16.892Z,3.80
2023-05-17T05:33:45.084Z,6.03
2023-05-17T05:36:13.017Z,4.68
2023-05-17T05:38:49.048Z,4.40
2023-05-17T05:41:29.859Z,4.10
2023-05-17T05:43:59.663Z,4.25
2023-05-17T05:46:27.512Z,5.43
2023-05-17T05:48:56.879Z,3.97
2023-05-17T05:51:24.975Z,4.97
2023-05-17T05:53:51.658Z,4.00
2023-05-17T05:56:19.853Z,4.43
2023-05-17T05:58:51.426Z,5.18
2023-05-17T06:01:21.094Z,5.15
2023-05-17T06:03:55.940Z,4.38
2023-05-17T06:06:30.825Z,4.15
2023-05-17T06:08:59.519Z,5.32
2023-05-17T06:11:29.948Z,3.95
2023-05-17T06:13:56.595Z,4.47
2023-05-17T06:16:23.378Z,4.10
2023-05-17T06:18:53.704Z,3.75
2023-05-17T06:21:20.446Z,4.82
2023-05-17T06:23:47.693Z,3.72
2023-05-17T06:26:14.907Z,3.80
2023-05-17T06:28:41.625Z,3.60
2023-05-17T06:31:09.866Z,4.22
2023-05-17T06:33:36.664Z,3.90
2023-05-17T06:36:06.797Z,3.53
2023-05-17T06:38:42.130Z,4.78
2023-05-17T06:43:50.926Z,2.88
2023-05-17T06:46:24.402Z,4.60
2023-05-17T06:48:51.631Z,3.20
2023-05-17T06:51:18.740Z,3.85
2023-05-17T06:53:46.502Z,4.00
2023-05-17T06:56:15.249Z,4.47
2023-05-17T06:58:42.491Z,3.70
2023-05-17T07:01:09.899Z,3.55
2023-05-17T07:03:37.570Z,4.88
2023-05-17T07:06:04.345Z,3.17
2023-05-17T07:08:35.928Z,3.45
2023-05-17T07:11:03.111Z,3.25
2023-05-17T07:13:31.131Z,3.63
2023-05-17T07:16:02.880Z,3.60
2023-05-17T07:18:29.608Z,2.90
2023-05-17T07:20:56.809Z,2.80
2023-05-17T07:23:26.055Z,2.97
2023-05-17T07:25:53.836Z,2.50
2023-05-17T07:28:20.922Z,3.60
2023-05-17T07:30:47.653Z,2.42
2023-05-17T07:33:14.295Z,3.85
2023-05-17T07:35:41.253Z,2.90
2023-05-17T07:38:08.117Z,3.00
2023-05-17T07:40:36.241Z,3.50
2023-05-17T07:43:02.760Z,3.88
2023-05-17T07:45:29.779Z,3.25
2023-05-17T07:47:56.673Z,2.60
2023-05-17T07:50:23.817Z,3.35
2023-05-17T07:52:54.239Z,3.38
2023-05-17T07:55:21.521Z,4.35
2023-05-17T07:57:48.378Z,2.72
2023-05-17T08:00:17.071Z,4.28
2023-05-17T08:02:43.587Z,2.88
2023-05-17T08:05:13.402Z,2.75
2023-05-17T08:07:40.559Z,2.83
2023-05-17T08:10:10.775Z,3.47
2023-05-17T08:12:38.286Z,3.45
2023-05-17T10:57:49.838Z,2.40
2023-05-17T11:00:21.127Z,2.08
2023-05-17T11:02:49.353Z,3.00
2023-05-17T11:05:28.240Z,2.17
2023-05-17T11:08:17.846Z,2.25
2023-05-17T11:11:14.096Z,2.38
2023-05-17T11:13:54.488Z,3.22
2023-05-17T11:16:25.557Z,2.88
2023-05-17T11:18:55.665Z,2.38
2023-05-17T11:21:23.262Z,3.70
2023-05-17T11:23:58.780Z,2.28
2023-05-17T11:26:38.413Z,2.08
2023-05-17T11:29:10.588Z,2.00
2023-05-17T11:31:43.794Z,2.47
2023-05-17T11:34:13.259Z,3.35
2023-05-17T11:36:54.793Z,4.03
2023-05-17T11:39:24.036Z,2.13
2023-05-17T11:41:57.857Z,1.88
2023-05-17T11:44:33.874Z,2.38
2023-05-17T11:47:06.468Z,2.92
2023-05-17T11:49:40.432Z,1.67
2023-05-17T11:52:17.321Z,2.28
2023-05-17T11:54:54.172Z,2.70
2023-05-17T11:57:42.971Z,2.08
2023-05-17T12:00:32.649Z,2.13
2023-05-17T12:03:17.153Z,2.83
2023-05-17T12:06:18.213Z,2.13
2023-05-17T12:08:59.414Z,1.88
2023-05-17T12:11:46.394Z,2.63
2023-05-17T12:14:45.799Z,2.30
2023-05-17T12:17:51.410Z,2.50
2023-05-17T12:20:53.472Z,2.38
2023-05-17T12:23:43.830Z,2.28
2023-05-17T12:26:34.958Z,2.20
2023-05-17T12:29:31.929Z,2.95
2023-05-17T12:32:11.926Z,2.53
2023-05-17T12:35:03.872Z,2.25
2023-05-17T12:37:54.308Z,2.83
2023-05-17T12:40:58.603Z,1.92
2023-05-17T12:44:17.875Z,1.90
2023-05-17T12:47:26.078Z,2.28
2023-05-17T12:50:37.780Z,2.08
2023-05-17T12:53:54.609Z,3.50
2023-05-17T12:56:38.994Z,2.97
2023-05-17T13:00:07.885Z,2.35
2023-05-17T13:03:33.888Z,2.10
2023-05-17T13:07:02.009Z,2.67
2023-05-17T13:10:32.731Z,1.88
2023-05-17T13:13:33.266Z,2.45
2023-05-17T13:17:00.978Z,2.33
2023-05-17T13:20:17.207Z,2.70
2023-05-17T13:23:32.163Z,3.60
2023-05-17T13:26:40.949Z,2.20
2023-05-17T13:29:52.780Z,2.45
2023-05-17T13:33:21.318Z,2.88
2023-05-17T13:36:36.962Z,2.75
2023-05-17T13:43:00.811Z,2.40
2023-05-17T13:46:11.718Z,2.85
2023-05-17T13:49:37.568Z,2.70
2023-05-17T13:52:59.331Z,3.13
2023-05-17T13:56:14.044Z,2.85
2023-05-17T13:59:33.417Z,2.57
2023-05-17T14:02:44.709Z,2.60
2023-05-17T14:05:56.061Z,2.50
2023-05-17T14:09:16.040Z,2.67
2023-05-17T14:12:42.054Z,2.47
2023-05-17T14:16:07.950Z,2.97
2023-05-17T14:19:33.829Z,4.18
2023-05-17T14:22:59.701Z,2.60
2023-05-17T14:26:25.171Z,2.63
2023-05-17T14:29:50.201Z,2.90
2023-05-17T14:33:20.253Z,3.80
2023-05-17T14:36:45.676Z,2.50
2023-05-17T14:40:12.918Z,2.70
2023-05-17T14:43:39.692Z,2.55
2023-05-17T14:47:07.131Z,3.50
2023-05-17T14:50:35.550Z,2.67
2023-05-17T14:54:00.921Z,2.83
2023-05-17T14:57:26.158Z,2.47
2023-05-17T15:01:06.221Z,2.72
2023-05-17T15:04:32.540Z,2.28
2023-05-17T15:07:57.720Z,3.10
2023-05-17T15:10:42.693Z,2.70
2023-05-17T15:13:10.747Z,3.25
2023-05-17T15:15:59.295Z,2.35
2023-05-17T15:18:39.787Z,3.05
2023-05-17T15:21:46.844Z,2.67
2023-05-17T15:24:55.483Z,2.58
2023-05-17T15:28:05.725Z,3.10
2023-05-17T15:31:22.134Z,2.63
2023-05-17T15:34:32.826Z,2.55
2023-05-17T15:38:09.486Z,2.45
2023-05-17T15:41:29.863Z,2.97
2023-05-17T15:44:55.078Z,2.85
2023-05-17T15:56:07.832Z,2.90
2023-05-17T15:59:32.846Z,4.38
2023-05-17T16:02:57.955Z,2.83
2023-05-17T16:06:23.079Z,2.75
2023-05-17T16:09:49.343Z,2.97
2023-05-17T16:13:18.725Z,2.75
2023-05-17T16:16:45.338Z,2.80
2023-05-17T16:20:10.995Z,2.63
2023-05-17T16:23:43.792Z,4.13
2023-05-17T16:27:08.888Z,2.80
2023-05-17T16:30:33.934Z,3.10
2023-05-17T16:33:59.493Z,3.80
2023-05-17T16:37:26.337Z,2.85
2023-05-17T16:40:46.958Z,2.75
2023-05-17T16:43:31.282Z,4.28
2023-05-17T16:46:56.718Z,2.85
2023-05-17T16:50:21.778Z,3.15
2023-05-17T16:53:47.157Z,2.92
2023-05-17T17:00:25.446Z,3.53
2023-05-17T17:03:50.776Z,3.55
2023-05-17T20:30:17.447Z,2.72
2023-05-17T20:33:46.520Z,3.00
2023-05-17T20:37:14.018Z,2.92
2023-05-17T20:40:39.080Z,3.55
2023-05-17T20:44:05.706Z,2.95
2023-05-17T20:46:59.346Z,3.53
2023-05-17T20:50:00.967Z,2.25
2023-05-17T20:52:47.229Z,2.55
2023-05-17T20:55:37.819Z,2.10
2023-05-17T20:59:03.462Z,2.63
2023-05-17T21:02:09.367Z,2.67
2023-05-17T21:05:25.801Z,2.60
2023-05-17T21:08:45.019Z,2.78
2023-05-17T21:11:25.229Z,2.83
2023-05-17T21:14:28.625Z,3.15
2023-05-17T21:16:57.211Z,2.72
2023-05-17T21:19:38.029Z,2.47
2023-05-17T21:22:24.587Z,2.60
2023-05-17T21:25:23.053Z,2.70
2023-05-17T21:28:19.751Z,2.60
2023-05-17T21:30:47.372Z,3.20
2023-05-17T21:33:15.311Z,2.63
2023-05-17T21:36:02.629Z,2.75
2023-05-17T21:39:04.071Z,2.75
2023-05-17T21:41:41.784Z,3.60
2023-05-17T21:44:11.524Z,2.70
2023-05-17T21:47:38.952Z,2.60
2023-05-17T21:50:58.112Z,3.35
2023-05-17T21:53:50.141Z,3.47
2023-05-17T21:57:11.732Z,2.88
2023-05-17T21:59:39.527Z,2.85
2023-05-17T22:02:08.516Z,3.03
2023-05-17T22:04:35.509Z,3.10
2023-05-17T22:07:02.195Z,3.42
2023-05-17T22:09:29.460Z,4.47
2023-05-17T22:12:12.255Z,2.95
2023-05-17T22:15:17.235Z,3.17
2023-05-17T22:17:51.493Z,2.75
2023-05-17T22:20:23.538Z,2.88
2023-05-17T22:22:50.560Z,3.22
2023-05-17T22:25:17.795Z,3.15
2023-05-17T22:27:58.130Z,2.40
2023-05-17T22:31:23.274Z,3.03
2023-05-17T22:34:49.206Z,3.40
2023-05-17T22:38:02.278Z,2.83
2023-05-17T22:41:28.134Z,3.10
2023-05-17T22:44:39.784Z,2.47
2023-05-17T22:48:08.538Z,3.17
2023-05-17T22:51:36.613Z,3.20
2023-05-17T22:55:02.450Z,2.63
2023-05-17T22:58:28.243Z,3.28
2023-05-17T23:01:34.032Z,3.42
2023-05-17T23:04:57.925Z,2.58
2023-05-17T23:08:16.448Z,3.13
2023-05-17T23:11:37.283Z,2.92
2023-05-17T23:14:06.033Z,2.90
2023-05-17T23:16:39.502Z,3.92
2023-05-17T23:19:10.081Z,3.08
2023-05-17T23:21:42.048Z,2.60
2023-05-17T23:24:14.319Z,2.63
2023-05-17T23:26:44.451Z,3.90
2023-05-17T23:29:25.936Z,3.70
2023-05-17T23:32:15.884Z,3.65
2023-05-17T23:34:58.498Z,4.00
2023-05-17T23:38:09.487Z,4.20
2023-05-17T23:41:18.351Z,3.78
2023-05-17T23:44:34.869Z,3.65
2023-05-17T23:47:30.961Z,4.07
2023-05-17T23:50:12.183Z,3.20
2023-05-17T23:53:39.048Z,3.47
2023-05-17T23:56:07.364Z,3.42
2023-05-17T23:58:36.471Z,3.25
